EXS32M EGCC-LIPX
Flight info
| Callsign | EXS32M |
|---|---|
| Flight time | 1h 58m |
| Altitude | 39000 |
| Route | N0456F390 LISTO L612 HON UL612 OGULO DCT OKASI DCT OKEKO DCT MOU DCT MADIV DCT MOKIP DCT TUFTA DCT GEVEA DCT ORSUD DCT BIBAN DCT GARLO DCT INVOP DCT TZO |
| Aircraft | A21N/M-SDE2E3FGHIJ1J3J4J5M1P2RWXYZ/LB1D1 |
Departure
| Time | 2026-05-06 11:30 |
|---|---|
| Airport | Manchester Airport (EGCC) |
Arrival
| Time | 2026-05-06 13:29 |
|---|---|
| Airport | Verona Villafranca Valerio Catullo Airport (LIPX) |
| Time | Latitude | Longitude | Altitude | Speed | Heading |
|---|---|---|---|---|---|
| 2026-05-06 09:35 | 53.36770 | -2.28957 | 261 ft | 0 kts | 135° |
| 2026-05-06 11:18 | 53.36782 | -2.28981 | 260 ft | 4 kts | 109° |
| 2026-05-06 11:18 | 53.36787 | -2.29013 | 260 ft | 5 kts | 121° |
| 2026-05-06 11:18 | 53.36800 | -2.29023 | 260 ft | 4 kts | 198° |
| 2026-05-06 11:19 | 53.36823 | -2.29009 | 260 ft | 2 kts | 199° |
| 2026-05-06 11:19 | 53.36824 | -2.29009 | 260 ft | 4 kts | 199° |
| 2026-05-06 11:22 | 53.36816 | -2.29013 | 260 ft | 3 kts | 200° |
| 2026-05-06 11:22 | 53.36777 | -2.29035 | 260 ft | 8 kts | 199° |
| 2026-05-06 11:22 | 53.36712 | -2.29024 | 260 ft | 11 kts | 148° |
| 2026-05-06 11:22 | 53.36649 | -2.28924 | 260 ft | 14 kts | 135° |
| 2026-05-06 11:23 | 53.36585 | -2.28790 | 260 ft | 16 kts | 116° |
| 2026-05-06 11:23 | 53.36510 | -2.28639 | 260 ft | 18 kts | 134° |
| 2026-05-06 11:23 | 53.36418 | -2.28490 | 260 ft | 19 kts | 147° |
| 2026-05-06 11:23 | 53.36317 | -2.28422 | 260 ft | 15 kts | 134° |
| 2026-05-06 11:24 | 53.36237 | -2.28289 | 260 ft | 17 kts | 136° |
| 2026-05-06 11:24 | 53.36153 | -2.28146 | 260 ft | 18 kts | 134° |
| 2026-05-06 11:24 | 53.36060 | -2.27997 | 260 ft | 19 kts | 139° |
| 2026-05-06 11:24 | 53.35959 | -2.27861 | 260 ft | 15 kts | 153° |
| 2026-05-06 11:25 | 53.35853 | -2.27856 | 258 ft | 16 kts | 187° |
| 2026-05-06 11:25 | 53.35737 | -2.27877 | 252 ft | 17 kts | 185° |
| 2026-05-06 11:25 | 53.35625 | -2.27907 | 246 ft | 13 kts | 216° |
| 2026-05-06 11:25 | 53.35562 | -2.28029 | 241 ft | 15 kts | 230° |
| 2026-05-06 11:26 | 53.35478 | -2.28140 | 239 ft | 17 kts | 201° |
| 2026-05-06 11:26 | 53.35357 | -2.28175 | 240 ft | 18 kts | 188° |
| 2026-05-06 11:26 | 53.35242 | -2.28274 | 237 ft | 20 kts | 232° |
| 2026-05-06 11:26 | 53.35156 | -2.28457 | 234 ft | 20 kts | 231° |
| 2026-05-06 11:27 | 53.35064 | -2.28645 | 234 ft | 21 kts | 231° |
| 2026-05-06 11:27 | 53.34966 | -2.28824 | 232 ft | 19 kts | 226° |
| 2026-05-06 11:27 | 53.34876 | -2.28982 | 226 ft | 19 kts | 226° |
| 2026-05-06 11:27 | 53.34788 | -2.29150 | 222 ft | 19 kts | 231° |
| 2026-05-06 11:28 | 53.34703 | -2.29310 | 219 ft | 16 kts | 211° |
| 2026-05-06 11:28 | 53.34592 | -2.29341 | 218 ft | 18 kts | 162° |
| 2026-05-06 11:28 | 53.34534 | -2.29235 | 219 ft | 6 kts | 51° |
| 2026-05-06 11:28 | 53.34539 | -2.29224 | 219 ft | 0 kts | 51° |
| 2026-05-06 11:29 | 53.34660 | -2.28972 | 224 ft | 63 kts | 51° |
| 2026-05-06 11:30 | 53.35063 | -2.28139 | 239 ft | 120 kts | 51° |
| 2026-05-06 11:30 | 53.35678 | -2.26872 | 295 ft | 157 kts | 50° |
| 2026-05-06 11:30 | 53.36349 | -2.25467 | 818 ft | 156 kts | 51° |
| 2026-05-06 11:30 | 53.37041 | -2.24022 | 1309 ft | 163 kts | 51° |
| 2026-05-06 11:31 | 53.37704 | -2.22360 | 1730 ft | 182 kts | 67° |
| 2026-05-06 11:31 | 53.37851 | -2.20154 | 2140 ft | 203 kts | 98° |
| 2026-05-06 11:31 | 53.37200 | -2.17888 | 2457 ft | 236 kts | 131° |
| 2026-05-06 11:31 | 53.35713 | -2.16520 | 3010 ft | 257 kts | 167° |
| 2026-05-06 11:32 | 53.33900 | -2.16408 | 3816 ft | 265 kts | 183° |
| 2026-05-06 11:32 | 53.32052 | -2.16801 | 4663 ft | 269 kts | 187° |
| 2026-05-06 11:32 | 53.30180 | -2.17221 | 5471 ft | 274 kts | 187° |
| 2026-05-06 11:32 | 53.28271 | -2.17600 | 6263 ft | 279 kts | 187° |
| 2026-05-06 11:33 | 53.26324 | -2.17952 | 7008 ft | 283 kts | 186° |
| 2026-05-06 11:33 | 53.24353 | -2.18285 | 7795 ft | 286 kts | 186° |
| 2026-05-06 11:33 | 53.22384 | -2.18604 | 8613 ft | 289 kts | 186° |
| 2026-05-06 11:33 | 53.20375 | -2.18926 | 9453 ft | 292 kts | 186° |
| 2026-05-06 11:34 | 53.18343 | -2.19249 | 10227 ft | 297 kts | 187° |
| 2026-05-06 11:34 | 53.16227 | -2.19583 | 10591 ft | 316 kts | 186° |
| 2026-05-06 11:34 | 53.13964 | -2.19511 | 10922 ft | 335 kts | 169° |
| 2026-05-06 11:34 | 53.11731 | -2.18271 | 11577 ft | 342 kts | 158° |
| 2026-05-06 11:35 | 53.09529 | -2.16709 | 12334 ft | 345 kts | 157° |
| 2026-05-06 11:35 | 53.07314 | -2.15118 | 13092 ft | 348 kts | 158° |
| 2026-05-06 11:35 | 53.05072 | -2.13532 | 13845 ft | 352 kts | 158° |
| 2026-05-06 11:35 | 53.02805 | -2.11949 | 14503 ft | 356 kts | 159° |
| 2026-05-06 11:36 | 53.00508 | -2.10355 | 15155 ft | 359 kts | 159° |
| 2026-05-06 11:36 | 52.98193 | -2.08758 | 15805 ft | 362 kts | 159° |
| 2026-05-06 11:36 | 52.95848 | -2.07146 | 16456 ft | 366 kts | 159° |
| 2026-05-06 11:36 | 52.93480 | -2.05519 | 17103 ft | 369 kts | 159° |
| 2026-05-06 11:37 | 52.91099 | -2.03882 | 17746 ft | 372 kts | 159° |
| 2026-05-06 11:37 | 52.88694 | -2.02237 | 18368 ft | 375 kts | 159° |
| 2026-05-06 11:37 | 52.86266 | -2.00579 | 18918 ft | 378 kts | 159° |
| 2026-05-06 11:37 | 52.83826 | -1.98914 | 19469 ft | 381 kts | 159° |
| 2026-05-06 11:38 | 52.81368 | -1.97229 | 20017 ft | 383 kts | 159° |
| 2026-05-06 11:38 | 52.78931 | -1.95563 | 20553 ft | 385 kts | 159° |
| 2026-05-06 11:38 | 52.76443 | -1.93866 | 21076 ft | 388 kts | 160° |
| 2026-05-06 11:38 | 52.73939 | -1.92156 | 21576 ft | 390 kts | 160° |
| 2026-05-06 11:39 | 52.71418 | -1.90443 | 22091 ft | 393 kts | 160° |
| 2026-05-06 11:39 | 52.68881 | -1.88722 | 22598 ft | 396 kts | 160° |
| 2026-05-06 11:39 | 52.66324 | -1.86986 | 23090 ft | 399 kts | 160° |
| 2026-05-06 11:39 | 52.63754 | -1.85242 | 23589 ft | 401 kts | 160° |
| 2026-05-06 11:40 | 52.61164 | -1.83486 | 24016 ft | 403 kts | 160° |
| 2026-05-06 11:40 | 52.58562 | -1.81728 | 24447 ft | 406 kts | 160° |
| 2026-05-06 11:40 | 52.55939 | -1.79961 | 24850 ft | 408 kts | 160° |
| 2026-05-06 11:40 | 52.53307 | -1.78187 | 25251 ft | 410 kts | 160° |
| 2026-05-06 11:41 | 52.50660 | -1.76407 | 25641 ft | 413 kts | 160° |
| 2026-05-06 11:41 | 52.47993 | -1.74618 | 26034 ft | 415 kts | 160° |
| 2026-05-06 11:41 | 52.45347 | -1.72844 | 26414 ft | 417 kts | 160° |
| 2026-05-06 11:41 | 52.42655 | -1.71043 | 26787 ft | 419 kts | 160° |
| 2026-05-06 11:42 | 52.39943 | -1.69230 | 27146 ft | 421 kts | 160° |
| 2026-05-06 11:42 | 52.37225 | -1.67412 | 27506 ft | 424 kts | 160° |
| 2026-05-06 11:42 | 52.34527 | -1.65444 | 27849 ft | 427 kts | 156° |
| 2026-05-06 11:42 | 52.31858 | -1.63270 | 28189 ft | 429 kts | 155° |
| 2026-05-06 11:43 | 52.29188 | -1.61068 | 28491 ft | 431 kts | 155° |
| 2026-05-06 11:43 | 52.26497 | -1.58857 | 28797 ft | 433 kts | 155° |
| 2026-05-06 11:43 | 52.23792 | -1.56645 | 29118 ft | 435 kts | 155° |
| 2026-05-06 11:44 | 52.18351 | -1.52207 | 29752 ft | 439 kts | 155° |
| 2026-05-06 11:44 | 52.15603 | -1.49969 | 30054 ft | 441 kts | 155° |
| 2026-05-06 11:44 | 52.12854 | -1.47732 | 30318 ft | 443 kts | 155° |
| 2026-05-06 11:44 | 52.10087 | -1.45485 | 30564 ft | 445 kts | 155° |
| 2026-05-06 11:45 | 52.07315 | -1.43226 | 30846 ft | 446 kts | 155° |
| 2026-05-06 11:45 | 52.04536 | -1.40960 | 31188 ft | 446 kts | 155° |
| 2026-05-06 11:45 | 52.01771 | -1.38710 | 31536 ft | 444 kts | 155° |
| 2026-05-06 11:45 | 51.99004 | -1.36474 | 31870 ft | 443 kts | 155° |
| 2026-05-06 11:46 | 51.96282 | -1.34277 | 32193 ft | 443 kts | 155° |
| 2026-05-06 11:46 | 51.93517 | -1.32047 | 32488 ft | 443 kts | 155° |
| 2026-05-06 11:46 | 51.90757 | -1.29822 | 32786 ft | 442 kts | 155° |
| 2026-05-06 11:46 | 51.88006 | -1.27608 | 33028 ft | 442 kts | 155° |
| 2026-05-06 11:47 | 51.82504 | -1.23189 | 33046 ft | 441 kts | 155° |
| 2026-05-06 11:47 | 51.76985 | -1.18765 | 33024 ft | 443 kts | 155° |
| 2026-05-06 11:48 | 51.71490 | -1.14380 | 33004 ft | 443 kts | 155° |
| 2026-05-06 11:48 | 51.65968 | -1.09983 | 32997 ft | 443 kts | 155° |
| 2026-05-06 11:49 | 51.60541 | -1.05312 | 33000 ft | 443 kts | 147° |
| 2026-05-06 11:49 | 51.55510 | -0.99589 | 33000 ft | 443 kts | 145° |
| 2026-05-06 11:50 | 51.50500 | -0.93842 | 32997 ft | 442 kts | 145° |
| 2026-05-06 11:50 | 51.45434 | -0.88261 | 32993 ft | 442 kts | 151° |
| 2026-05-06 11:51 | 51.39822 | -0.84308 | 32999 ft | 441 kts | 160° |
| 2026-05-06 11:51 | 51.34108 | -0.80726 | 32990 ft | 442 kts | 160° |
| 2026-05-06 11:52 | 51.28430 | -0.77119 | 32997 ft | 444 kts | 159° |
| 2026-05-06 11:52 | 51.22680 | -0.73460 | 32998 ft | 445 kts | 160° |
| 2026-05-06 11:53 | 51.16955 | -0.69825 | 32995 ft | 442 kts | 160° |
| 2026-05-06 11:53 | 51.11226 | -0.66202 | 32996 ft | 441 kts | 159° |
| 2026-05-06 11:54 | 51.05550 | -0.62473 | 32986 ft | 443 kts | 153° |
| 2026-05-06 11:54 | 51.00329 | -0.57196 | 32976 ft | 447 kts | 147° |
| 2026-05-06 11:55 | 50.95194 | -0.51645 | 32979 ft | 447 kts | 147° |
| 2026-05-06 11:55 | 50.90031 | -0.46135 | 32975 ft | 447 kts | 147° |
| 2026-05-06 11:56 | 50.84867 | -0.40661 | 32968 ft | 447 kts | 147° |
| 2026-05-06 11:56 | 50.79730 | -0.35225 | 32977 ft | 446 kts | 147° |
| 2026-05-06 11:57 | 50.74573 | -0.29787 | 32970 ft | 443 kts | 147° |
| 2026-05-06 11:57 | 50.69425 | -0.24368 | 32966 ft | 445 kts | 147° |
| 2026-05-06 11:58 | 50.64276 | -0.18965 | 32961 ft | 443 kts | 146° |
| 2026-05-06 11:58 | 50.59125 | -0.13569 | 32974 ft | 446 kts | 147° |
| 2026-05-06 11:59 | 50.53951 | -0.08170 | 32966 ft | 446 kts | 147° |
| 2026-05-06 11:59 | 50.48816 | -0.02824 | 32976 ft | 445 kts | 147° |
| 2026-05-06 12:00 | 50.43685 | 0.02503 | 32972 ft | 438 kts | 147° |
| 2026-05-06 12:00 | 50.38598 | 0.07778 | 32977 ft | 438 kts | 147° |
| 2026-05-06 12:01 | 50.33510 | 0.13037 | 32969 ft | 438 kts | 147° |
| 2026-05-06 12:01 | 50.28420 | 0.18298 | 32971 ft | 438 kts | 147° |
| 2026-05-06 12:02 | 50.23322 | 0.23529 | 32976 ft | 438 kts | 147° |
| 2026-05-06 12:02 | 50.18221 | 0.28752 | 32972 ft | 439 kts | 147° |
| 2026-05-06 12:03 | 50.13124 | 0.34006 | 32972 ft | 439 kts | 147° |
| 2026-05-06 12:03 | 50.08030 | 0.39237 | 32972 ft | 438 kts | 147° |
| 2026-05-06 12:04 | 50.02976 | 0.44406 | 32972 ft | 438 kts | 147° |
| 2026-05-06 12:04 | 49.97898 | 0.49588 | 32976 ft | 435 kts | 147° |
| 2026-05-06 12:05 | 49.92822 | 0.54742 | 32966 ft | 436 kts | 147° |
| 2026-05-06 12:05 | 49.87735 | 0.59903 | 32966 ft | 436 kts | 146° |
| 2026-05-06 12:06 | 49.82863 | 0.65495 | 32967 ft | 436 kts | 140° |
| 2026-05-06 12:06 | 49.78153 | 0.71451 | 32967 ft | 437 kts | 140° |
| 2026-05-06 12:07 | 49.74230 | 0.76393 | 32956 ft | 437 kts | 140° |
| 2026-05-06 12:07 | 49.68742 | 0.83271 | 32956 ft | 437 kts | 140° |
| 2026-05-06 12:08 | 49.64815 | 0.88175 | 32954 ft | 437 kts | 141° |
| 2026-05-06 12:08 | 49.60098 | 0.94065 | 32945 ft | 435 kts | 140° |
| 2026-05-06 12:09 | 49.55388 | 0.99920 | 32936 ft | 435 kts | 140° |
| 2026-05-06 12:09 | 49.50673 | 1.05769 | 32938 ft | 435 kts | 140° |
| 2026-05-06 12:10 | 49.45954 | 1.11610 | 32936 ft | 436 kts | 140° |
| 2026-05-06 12:10 | 49.41234 | 1.17438 | 32936 ft | 436 kts | 140° |
| 2026-05-06 12:11 | 49.36506 | 1.23259 | 32935 ft | 436 kts | 140° |
| 2026-05-06 12:11 | 49.31799 | 1.29043 | 32933 ft | 436 kts | 140° |
| 2026-05-06 12:12 | 49.27060 | 1.34850 | 32935 ft | 436 kts | 141° |
| 2026-05-06 12:12 | 49.22317 | 1.40644 | 32933 ft | 436 kts | 141° |
| 2026-05-06 12:13 | 49.17575 | 1.46425 | 32931 ft | 436 kts | 141° |
| 2026-05-06 12:13 | 49.12824 | 1.52189 | 32929 ft | 436 kts | 141° |
| 2026-05-06 12:14 | 49.08079 | 1.57952 | 32943 ft | 436 kts | 141° |
| 2026-05-06 12:14 | 49.03322 | 1.63704 | 32928 ft | 437 kts | 141° |
| 2026-05-06 12:15 | 48.98556 | 1.69466 | 32926 ft | 437 kts | 141° |
| 2026-05-06 12:15 | 48.93785 | 1.75205 | 32929 ft | 437 kts | 141° |
| 2026-05-06 12:16 | 48.89051 | 1.80905 | 32931 ft | 433 kts | 141° |
| 2026-05-06 12:16 | 48.84358 | 1.86536 | 32933 ft | 431 kts | 141° |
| 2026-05-06 12:17 | 48.79640 | 1.92183 | 32939 ft | 431 kts | 141° |
| 2026-05-06 12:17 | 48.74917 | 1.97809 | 32926 ft | 432 kts | 141° |
| 2026-05-06 12:18 | 48.70194 | 2.03424 | 32917 ft | 431 kts | 141° |
| 2026-05-06 12:18 | 48.65456 | 2.09033 | 32901 ft | 433 kts | 141° |
| 2026-05-06 12:19 | 48.60740 | 2.14609 | 32910 ft | 432 kts | 141° |
| 2026-05-06 12:19 | 48.56100 | 2.20346 | 32916 ft | 430 kts | 136° |
| 2026-05-06 12:20 | 48.51865 | 2.26747 | 32928 ft | 432 kts | 134° |
| 2026-05-06 12:20 | 48.47650 | 2.33169 | 32931 ft | 429 kts | 134° |
| 2026-05-06 12:21 | 48.43431 | 2.39564 | 32915 ft | 429 kts | 134° |
| 2026-05-06 12:21 | 48.39219 | 2.45918 | 32914 ft | 430 kts | 135° |
| 2026-05-06 12:22 | 48.35000 | 2.52266 | 32919 ft | 431 kts | 135° |
| 2026-05-06 12:22 | 48.30764 | 2.58629 | 32924 ft | 430 kts | 136° |
| 2026-05-06 12:23 | 48.26050 | 2.64068 | 32926 ft | 429 kts | 153° |
| 2026-05-06 12:23 | 48.20665 | 2.67931 | 32926 ft | 427 kts | 153° |
| 2026-05-06 12:24 | 48.15392 | 2.72103 | 32928 ft | 430 kts | 152° |
| 2026-05-06 12:24 | 48.10171 | 2.76298 | 32915 ft | 426 kts | 152° |
| 2026-05-06 12:25 | 48.04786 | 2.80068 | 32910 ft | 430 kts | 157° |
| 2026-05-06 12:25 | 47.99288 | 2.83547 | 32912 ft | 427 kts | 157° |
| 2026-05-06 12:26 | 47.93796 | 2.87028 | 32916 ft | 429 kts | 157° |
| 2026-05-06 12:26 | 47.88314 | 2.90506 | 32910 ft | 430 kts | 157° |
| 2026-05-06 12:27 | 47.82812 | 2.93983 | 32909 ft | 428 kts | 157° |
| 2026-05-06 12:27 | 47.77318 | 2.97450 | 32908 ft | 428 kts | 157° |
| 2026-05-06 12:28 | 47.71868 | 3.00880 | 32909 ft | 428 kts | 158° |
| 2026-05-06 12:28 | 47.66383 | 3.04325 | 32905 ft | 428 kts | 158° |
| 2026-05-06 12:29 | 47.60901 | 3.07761 | 32904 ft | 428 kts | 158° |
| 2026-05-06 12:29 | 47.55418 | 3.11193 | 32903 ft | 427 kts | 158° |
| 2026-05-06 12:30 | 47.49941 | 3.14613 | 32904 ft | 427 kts | 158° |
| 2026-05-06 12:30 | 47.44461 | 3.18022 | 32897 ft | 427 kts | 158° |
| 2026-05-06 12:31 | 47.38979 | 3.21423 | 32892 ft | 427 kts | 158° |
| 2026-05-06 12:31 | 47.33495 | 3.24822 | 32892 ft | 427 kts | 158° |
| 2026-05-06 12:32 | 47.28042 | 3.28189 | 32893 ft | 428 kts | 158° |
| 2026-05-06 12:32 | 47.22580 | 3.31557 | 32877 ft | 425 kts | 158° |
| 2026-05-06 12:33 | 47.17120 | 3.34912 | 32882 ft | 425 kts | 158° |
| 2026-05-06 12:33 | 47.11658 | 3.38265 | 32882 ft | 425 kts | 158° |
| 2026-05-06 12:34 | 47.06193 | 3.41618 | 32892 ft | 426 kts | 158° |
| 2026-05-06 12:34 | 47.00743 | 3.44949 | 32887 ft | 426 kts | 158° |
| 2026-05-06 12:35 | 46.95262 | 3.48285 | 32883 ft | 426 kts | 158° |
| 2026-05-06 12:35 | 46.89783 | 3.51615 | 32881 ft | 427 kts | 158° |
| 2026-05-06 12:36 | 46.84292 | 3.54952 | 32875 ft | 427 kts | 158° |
| 2026-05-06 12:36 | 46.78806 | 3.58276 | 32870 ft | 427 kts | 158° |
| 2026-05-06 12:37 | 46.73536 | 3.62232 | 32861 ft | 429 kts | 143° |
| 2026-05-06 12:37 | 46.71404 | 3.65287 | 32863 ft | 431 kts | 129° |
| 2026-05-06 12:37 | 46.69826 | 3.69004 | 32867 ft | 434 kts | 116° |
| 2026-05-06 12:38 | 46.68157 | 3.77497 | 32875 ft | 438 kts | 104° |
| 2026-05-06 12:38 | 46.66774 | 3.86118 | 32870 ft | 436 kts | 105° |
| 2026-05-06 12:39 | 46.65334 | 3.94623 | 32871 ft | 435 kts | 106° |
| 2026-05-06 12:39 | 46.63853 | 4.03167 | 32872 ft | 435 kts | 106° |
| 2026-05-06 12:40 | 46.62363 | 4.11727 | 32871 ft | 437 kts | 106° |
| 2026-05-06 12:40 | 46.60865 | 4.20305 | 32871 ft | 437 kts | 106° |
| 2026-05-06 12:41 | 46.59362 | 4.28871 | 32868 ft | 437 kts | 106° |
| 2026-05-06 12:41 | 46.57851 | 4.37447 | 32867 ft | 437 kts | 107° |
| 2026-05-06 12:42 | 46.56333 | 4.46013 | 32859 ft | 438 kts | 107° |
| 2026-05-06 12:42 | 46.54806 | 4.54592 | 32873 ft | 438 kts | 107° |
| 2026-05-06 12:43 | 46.53273 | 4.63159 | 32875 ft | 438 kts | 107° |
| 2026-05-06 12:43 | 46.51734 | 4.71735 | 32877 ft | 438 kts | 107° |
| 2026-05-06 12:44 | 46.50186 | 4.80304 | 32880 ft | 438 kts | 107° |
| 2026-05-06 12:44 | 46.48640 | 4.88834 | 32878 ft | 442 kts | 107° |
| 2026-05-06 12:45 | 46.47066 | 4.97469 | 32881 ft | 443 kts | 107° |
| 2026-05-06 12:46 | 46.44683 | 5.10460 | 32894 ft | 447 kts | 108° |
| 2026-05-06 12:46 | 46.43079 | 5.19181 | 32895 ft | 448 kts | 108° |
| 2026-05-06 12:47 | 46.41465 | 5.27904 | 32892 ft | 449 kts | 108° |
| 2026-05-06 12:47 | 46.39851 | 5.36589 | 32902 ft | 449 kts | 108° |
| 2026-05-06 12:48 | 46.38089 | 5.45255 | 32900 ft | 448 kts | 112° |
| 2026-05-06 12:48 | 46.36075 | 5.53782 | 32907 ft | 448 kts | 112° |
| 2026-05-06 12:49 | 46.34053 | 5.62307 | 32886 ft | 448 kts | 113° |
| 2026-05-06 12:49 | 46.32023 | 5.70849 | 32919 ft | 449 kts | 113° |
| 2026-05-06 12:50 | 46.29984 | 5.79398 | 32919 ft | 449 kts | 113° |
| 2026-05-06 12:50 | 46.27941 | 5.87936 | 32924 ft | 449 kts | 113° |
| 2026-05-06 12:51 | 46.25891 | 5.96464 | 32934 ft | 449 kts | 113° |
| 2026-05-06 12:51 | 46.23836 | 6.04985 | 32923 ft | 450 kts | 114° |
| 2026-05-06 12:52 | 46.21768 | 6.13517 | 32934 ft | 450 kts | 114° |
| 2026-05-06 12:52 | 46.19711 | 6.21984 | 32935 ft | 450 kts | 115° |
| 2026-05-06 12:53 | 46.17623 | 6.30526 | 32927 ft | 451 kts | 115° |
| 2026-05-06 12:53 | 46.15534 | 6.39058 | 32890 ft | 451 kts | 116° |
| 2026-05-06 12:54 | 46.13433 | 6.47577 | 32918 ft | 451 kts | 116° |
| 2026-05-06 12:54 | 46.11339 | 6.56051 | 32933 ft | 451 kts | 116° |
| 2026-05-06 12:55 | 46.09220 | 6.64630 | 32920 ft | 451 kts | 116° |
| 2026-05-06 12:55 | 46.07119 | 6.73079 | 32915 ft | 451 kts | 116° |
| 2026-05-06 12:56 | 46.04990 | 6.81580 | 32911 ft | 449 kts | 117° |
| 2026-05-06 12:56 | 46.02872 | 6.90038 | 32912 ft | 449 kts | 117° |
| 2026-05-06 12:57 | 46.00742 | 6.98495 | 32895 ft | 449 kts | 117° |
| 2026-05-06 12:57 | 45.98602 | 7.06949 | 32895 ft | 450 kts | 117° |
| 2026-05-06 12:58 | 45.96457 | 7.15391 | 32835 ft | 449 kts | 117° |
| 2026-05-06 12:58 | 45.94956 | 7.24134 | 32851 ft | 459 kts | 106° |
| 2026-05-06 12:59 | 45.93943 | 7.33193 | 32833 ft | 459 kts | 106° |
| 2026-05-06 12:59 | 45.92874 | 7.42217 | 32850 ft | 458 kts | 107° |
| 2026-05-06 13:00 | 45.91517 | 7.51116 | 32853 ft | 455 kts | 111° |
| 2026-05-06 13:00 | 45.90262 | 7.58437 | 32860 ft | 454 kts | 111° |
| 2026-05-06 13:01 | 45.88749 | 7.67249 | 32851 ft | 455 kts | 111° |
| 2026-05-06 13:01 | 45.87233 | 7.76073 | 32852 ft | 455 kts | 111° |
| 2026-05-06 13:02 | 45.85694 | 7.84876 | 32854 ft | 455 kts | 112° |
| 2026-05-06 13:02 | 45.84143 | 7.93685 | 32818 ft | 455 kts | 112° |
| 2026-05-06 13:03 | 45.82589 | 8.02487 | 32851 ft | 455 kts | 112° |
| 2026-05-06 13:03 | 45.81028 | 8.11276 | 32835 ft | 455 kts | 112° |
| 2026-05-06 13:04 | 45.79468 | 8.20076 | 32843 ft | 455 kts | 112° |
| 2026-05-06 13:04 | 45.77948 | 8.28876 | 32758 ft | 450 kts | 112° |
| 2026-05-06 13:04 | 45.77206 | 8.33138 | 32356 ft | 443 kts | 113° |
| 2026-05-06 13:05 | 45.76453 | 8.37409 | 31802 ft | 441 kts | 113° |
| 2026-05-06 13:05 | 45.75703 | 8.41660 | 31258 ft | 438 kts | 113° |
| 2026-05-06 13:05 | 45.74959 | 8.45884 | 30735 ft | 434 kts | 113° |
| 2026-05-06 13:05 | 45.74228 | 8.50063 | 30236 ft | 430 kts | 114° |
| 2026-05-06 13:06 | 45.73503 | 8.54191 | 29749 ft | 426 kts | 114° |
| 2026-05-06 13:06 | 45.72778 | 8.58283 | 29199 ft | 421 kts | 114° |
| 2026-05-06 13:06 | 45.72054 | 8.62319 | 28685 ft | 417 kts | 114° |
| 2026-05-06 13:06 | 45.71345 | 8.66262 | 28153 ft | 412 kts | 113° |
| 2026-05-06 13:07 | 45.70636 | 8.70260 | 27718 ft | 406 kts | 113° |
| 2026-05-06 13:07 | 45.69941 | 8.74152 | 27284 ft | 401 kts | 113° |
| 2026-05-06 13:07 | 45.69250 | 8.78000 | 26831 ft | 398 kts | 113° |
| 2026-05-06 13:07 | 45.68567 | 8.81769 | 26380 ft | 397 kts | 113° |
| 2026-05-06 13:08 | 45.67880 | 8.85576 | 25925 ft | 395 kts | 113° |
| 2026-05-06 13:08 | 45.67190 | 8.89383 | 25477 ft | 394 kts | 113° |
| 2026-05-06 13:08 | 45.66502 | 8.93170 | 25060 ft | 394 kts | 113° |
| 2026-05-06 13:08 | 45.65813 | 8.96965 | 24621 ft | 395 kts | 112° |
| 2026-05-06 13:09 | 45.65123 | 9.00774 | 24148 ft | 397 kts | 112° |
| 2026-05-06 13:09 | 45.64424 | 9.04618 | 23641 ft | 400 kts | 112° |
| 2026-05-06 13:09 | 45.63723 | 9.08464 | 23140 ft | 399 kts | 112° |
| 2026-05-06 13:09 | 45.63026 | 9.12286 | 22643 ft | 396 kts | 112° |
| 2026-05-06 13:10 | 45.62328 | 9.16072 | 22156 ft | 391 kts | 112° |
| 2026-05-06 13:10 | 45.61633 | 9.19804 | 21673 ft | 387 kts | 112° |
| 2026-05-06 13:10 | 45.60944 | 9.23503 | 21216 ft | 383 kts | 111° |
| 2026-05-06 13:10 | 45.60266 | 9.27158 | 20771 ft | 379 kts | 111° |
| 2026-05-06 13:11 | 45.59597 | 9.30778 | 20328 ft | 375 kts | 111° |
| 2026-05-06 13:11 | 45.58944 | 9.34315 | 19898 ft | 371 kts | 111° |
| 2026-05-06 13:11 | 45.58287 | 9.37857 | 19727 ft | 367 kts | 111° |
| 2026-05-06 13:11 | 45.57636 | 9.41349 | 19318 ft | 363 kts | 111° |
| 2026-05-06 13:12 | 45.56991 | 9.44814 | 18933 ft | 359 kts | 110° |
| 2026-05-06 13:12 | 45.56352 | 9.48237 | 18558 ft | 355 kts | 110° |
| 2026-05-06 13:12 | 45.55642 | 9.51587 | 18146 ft | 348 kts | 118° |
| 2026-05-06 13:12 | 45.54660 | 9.54694 | 17743 ft | 341 kts | 121° |
| 2026-05-06 13:13 | 45.53635 | 9.57720 | 17362 ft | 337 kts | 121° |
| 2026-05-06 13:13 | 45.52627 | 9.60721 | 16984 ft | 334 kts | 121° |
| 2026-05-06 13:13 | 45.51630 | 9.63712 | 16601 ft | 335 kts | 121° |
| 2026-05-06 13:13 | 45.50634 | 9.66714 | 16211 ft | 335 kts | 121° |
| 2026-05-06 13:14 | 45.49643 | 9.69717 | 15849 ft | 334 kts | 121° |
| 2026-05-06 13:14 | 45.48656 | 9.72707 | 15485 ft | 333 kts | 121° |
| 2026-05-06 13:14 | 45.47669 | 9.75683 | 15108 ft | 332 kts | 121° |
| 2026-05-06 13:14 | 45.46682 | 9.78658 | 14632 ft | 332 kts | 121° |
| 2026-05-06 13:15 | 45.45708 | 9.81593 | 14256 ft | 332 kts | 121° |
| 2026-05-06 13:15 | 45.44720 | 9.84571 | 13892 ft | 332 kts | 120° |
| 2026-05-06 13:15 | 45.43731 | 9.87543 | 13516 ft | 331 kts | 120° |
| 2026-05-06 13:15 | 45.42752 | 9.90484 | 13114 ft | 326 kts | 120° |
| 2026-05-06 13:16 | 45.41788 | 9.93380 | 12740 ft | 321 kts | 120° |
| 2026-05-06 13:16 | 45.40838 | 9.96228 | 12387 ft | 316 kts | 121° |
| 2026-05-06 13:16 | 45.39894 | 9.99039 | 12018 ft | 312 kts | 121° |
| 2026-05-06 13:16 | 45.38968 | 10.01813 | 11666 ft | 308 kts | 121° |
| 2026-05-06 13:17 | 45.38053 | 10.04552 | 11330 ft | 304 kts | 121° |
| 2026-05-06 13:17 | 45.37147 | 10.07264 | 10995 ft | 303 kts | 121° |
| 2026-05-06 13:17 | 45.36245 | 10.09955 | 10700 ft | 302 kts | 121° |
| 2026-05-06 13:17 | 45.35332 | 10.12674 | 10355 ft | 306 kts | 120° |
| 2026-05-06 13:18 | 45.34413 | 10.15414 | 10033 ft | 307 kts | 120° |
| 2026-05-06 13:18 | 45.33507 | 10.18113 | 9828 ft | 304 kts | 120° |
| 2026-05-06 13:18 | 45.32610 | 10.20793 | 9533 ft | 298 kts | 120° |
| 2026-05-06 13:18 | 45.31675 | 10.23415 | 9106 ft | 294 kts | 127° |
| 2026-05-06 13:19 | 45.30436 | 10.25681 | 8679 ft | 288 kts | 137° |
| 2026-05-06 13:19 | 45.29111 | 10.27784 | 8348 ft | 284 kts | 137° |
| 2026-05-06 13:19 | 45.27789 | 10.29861 | 7961 ft | 282 kts | 137° |
| 2026-05-06 13:19 | 45.26484 | 10.31928 | 7623 ft | 280 kts | 137° |
| 2026-05-06 13:20 | 45.25192 | 10.33980 | 7276 ft | 277 kts | 137° |
| 2026-05-06 13:20 | 45.23913 | 10.36016 | 6955 ft | 276 kts | 136° |
| 2026-05-06 13:20 | 45.22645 | 10.38053 | 6654 ft | 275 kts | 136° |
| 2026-05-06 13:20 | 45.21377 | 10.40090 | 6341 ft | 276 kts | 136° |
| 2026-05-06 13:21 | 45.20116 | 10.42120 | 6078 ft | 271 kts | 136° |
| 2026-05-06 13:21 | 45.18893 | 10.44091 | 5965 ft | 259 kts | 136° |
| 2026-05-06 13:21 | 45.17743 | 10.45944 | 6016 ft | 245 kts | 137° |
| 2026-05-06 13:21 | 45.16630 | 10.47723 | 6035 ft | 244 kts | 137° |
| 2026-05-06 13:22 | 45.15544 | 10.49570 | 6015 ft | 247 kts | 128° |
| 2026-05-06 13:22 | 45.14984 | 10.51907 | 5952 ft | 259 kts | 96° |
| 2026-05-06 13:22 | 45.15389 | 10.54389 | 5655 ft | 264 kts | 60° |
| 2026-05-06 13:22 | 45.16597 | 10.56333 | 5328 ft | 264 kts | 42° |
| 2026-05-06 13:23 | 45.17956 | 10.58060 | 5041 ft | 260 kts | 42° |
| 2026-05-06 13:23 | 45.19262 | 10.59760 | 4861 ft | 249 kts | 44° |
| 2026-05-06 13:23 | 45.20487 | 10.61412 | 4662 ft | 238 kts | 44° |
| 2026-05-06 13:23 | 45.21664 | 10.63033 | 4370 ft | 235 kts | 45° |
| 2026-05-06 13:24 | 45.22820 | 10.64659 | 4054 ft | 231 kts | 46° |
| 2026-05-06 13:24 | 45.23947 | 10.66254 | 3980 ft | 228 kts | 45° |
| 2026-05-06 13:24 | 45.25078 | 10.67829 | 3931 ft | 223 kts | 46° |
| 2026-05-06 13:24 | 45.26134 | 10.69346 | 3723 ft | 215 kts | 46° |
| 2026-05-06 13:25 | 45.27166 | 10.70838 | 3490 ft | 210 kts | 47° |
| 2026-05-06 13:25 | 45.28182 | 10.72308 | 3222 ft | 207 kts | 49° |
| 2026-05-06 13:25 | 45.29183 | 10.73759 | 2946 ft | 204 kts | 50° |
| 2026-05-06 13:25 | 45.30162 | 10.75182 | 2752 ft | 198 kts | 49° |
| 2026-05-06 13:26 | 45.31118 | 10.76568 | 2479 ft | 195 kts | 49° |
| 2026-05-06 13:26 | 45.32069 | 10.77951 | 2200 ft | 196 kts | 49° |
| 2026-05-06 13:26 | 45.33026 | 10.79338 | 1921 ft | 195 kts | 51° |
| 2026-05-06 13:26 | 45.33960 | 10.80694 | 1658 ft | 188 kts | 49° |
| 2026-05-06 13:27 | 45.34853 | 10.81990 | 1427 ft | 178 kts | 50° |
| 2026-05-06 13:27 | 45.35660 | 10.83163 | 1165 ft | 154 kts | 49° |
| 2026-05-06 13:27 | 45.36355 | 10.84174 | 941 ft | 136 kts | 49° |
| 2026-05-06 13:27 | 45.37015 | 10.85132 | 761 ft | 135 kts | 49° |
| 2026-05-06 13:28 | 45.37668 | 10.86077 | 587 ft | 135 kts | 49° |
| 2026-05-06 13:28 | 45.38335 | 10.87050 | 419 ft | 137 kts | 49° |
| 2026-05-06 13:28 | 45.38997 | 10.88021 | 261 ft | 136 kts | 49° |
| 2026-05-06 13:28 | 45.39586 | 10.88889 | 245 ft | 100 kts | 45° |
| 2026-05-06 13:29 | 45.39931 | 10.89382 | 243 ft | 40 kts | 43° |
| 2026-05-06 13:29 | 45.40075 | 10.89589 | 244 ft | 29 kts | 43° |
| 2026-05-06 13:29 | 45.40221 | 10.89799 | 244 ft | 30 kts | 46° |
| 2026-05-06 13:29 | 45.40284 | 10.89961 | 243 ft | 16 kts | 75° |
| 2026-05-06 13:30 | 45.40309 | 10.90118 | 242 ft | 17 kts | 75° |
| 2026-05-06 13:30 | 45.40336 | 10.90264 | 242 ft | 6 kts | 91° |
| 2026-05-06 13:30 | 45.40305 | 10.90313 | 242 ft | 8 kts | 139° |
| 2026-05-06 13:30 | 45.40257 | 10.90380 | 242 ft | 11 kts | 125° |
| 2026-05-06 13:31 | 45.40270 | 10.90436 | 242 ft | 6 kts | 46° |
| 2026-05-06 13:31 | 45.40303 | 10.90484 | 242 ft | 8 kts | 46° |
| 2026-05-06 13:31 | 45.40344 | 10.90546 | 242 ft | 10 kts | 46° |
| 2026-05-06 13:31 | 45.40388 | 10.90615 | 242 ft | 6 kts | 69° |
| 2026-05-06 13:32 | 45.40370 | 10.90664 | 242 ft | 5 kts | 135° |
| 2026-05-06 13:32 | 45.40360 | 10.90680 | 242 ft | 0 kts | 136° |